PWSweather.com
Personal Weather Stations
Station Observations
BC052CD
On, Kemptville, ON K0G 1J0

OnKemptville, ON K0G 1J0

Lat: 45.0173179, Lon: -75.6329355

Elevation: 295

Station Type: National Geographic 265NC

http://kerrentweather.ca

Latest ConditionsUpdated 6:30:06 PM EDT Monday, Oct 15, 2018
Currently Today's Max Today's Min Today's Average
Temperature 54.3°F12.4°C 55.4°F13.0°C 39.2°F4.0°C 45.8°F7.7°C
Dew Point 54.3°F12.4°C 55.4°F13.0°C 37.1°F2.8°C 44.2°F6.8°C
Winds 5.6 mph W9.0 kmh W 7.5 mph -12.1 kmh - - 1.7 mph 2.7 kmh
Wind Gusts 16.2 mph26.1 kmh 18.2 mph29.3 kmh - -
Humidity 100% 100% 84% 94%
Pressure 29.71 in1006.1 mb 30.16 in1021.3 mb 29.66 in1004.4 mb -
Precipitation - 0.09 in2.3 mm - -
Hour Temp Dew Point Humidity Winds Wind Gusts Pressure Precip Precip Rate Daily Precip Total
06:30 PM 54.3°F12.4°C 54.3°F12.4°C 100% 5.6 mph W9.0 kmh W 16.2 mph26.1 kmh 29.71 in1006.1 mb 0.01 in0.3 mm 0.04 in1.0 mm 0.09 in2.3 mm
06:15 PM 54.5°F12.5°C 54.5°F12.5°C 100% 4.8 mph W7.7 kmh W 14.3 mph23.0 kmh 29.70 in1005.8 mb 0.00 in0.0 mm 0.00 in0.0 mm 0.08 in2.0 mm
06:00 PM 54.7°F12.6°C 54.7°F12.6°C 100% 3.9 mph W6.3 kmh W 16.2 mph26.1 kmh 29.69 in1005.4 mb 0.00 in0.0 mm 0.00 in0.0 mm 0.08 in2.0 mm
05:45 PM 54.7°F12.6°C 54.7°F12.6°C 100% 3.9 mph W6.3 kmh W 18.2 mph29.3 kmh 29.69 in1005.4 mb 0.00 in0.0 mm 0.00 in0.0 mm 0.08 in2.0 mm
05:30 PM 55.2°F12.9°C 55.2°F12.9°C 100% 2.8 mph W4.5 kmh W 13.4 mph21.6 kmh 29.68 in1005.1 mb 0.00 in0.0 mm 0.00 in0.0 mm 0.08 in2.0 mm
05:15 PM 55.4°F13.0°C 55.4°F13.0°C 100% 3.9 mph W6.3 kmh W 17.1 mph27.5 kmh 29.68 in1005.1 mb 0.00 in0.0 mm 0.00 in0.0 mm 0.08 in2.0 mm
05:00 PM 55.2°F12.9°C 55.2°F12.9°C 100% 7.5 mph W12.1 kmh W 17.1 mph27.5 kmh 29.67 in1004.7 mb 0.00 in0.0 mm 0.00 in0.0 mm 0.08 in2.0 mm
04:45 PM 55.0°F12.8°C 55.0°F12.8°C 100% 2.8 mph W4.5 kmh W 10.3 mph16.6 kmh 29.66 in1004.4 mb 0.01 in0.3 mm 0.00 in0.0 mm 0.08 in2.0 mm
04:30 PM 54.5°F12.5°C 54.5°F12.5°C 100% 3.9 mph W6.3 kmh W 16.2 mph26.1 kmh 29.67 in1004.7 mb 0.01 in0.3 mm 0.00 in0.0 mm 0.08 in2.0 mm
04:15 PM 53.8°F12.1°C 53.8°F12.1°C 100% 3.9 mph W6.3 kmh W 8.7 mph14.0 kmh 29.67 in1004.7 mb 0.01 in0.3 mm 0.00 in0.0 mm 0.08 in2.0 mm
04:00 PM 52.7°F11.5°C 52.7°F11.5°C 100% 0.8 mph W1.3 kmh W 10.3 mph16.6 kmh 29.68 in1005.1 mb 0.01 in0.3 mm 0.01 in0.3 mm 0.08 in2.0 mm
03:45 PM 52.0°F11.1°C 52.0°F11.1°C 100% 2.0 mph W3.2 kmh W 7.5 mph12.1 kmh 29.69 in1005.4 mb 0.00 in0.0 mm 0.00 in0.0 mm 0.07 in1.8 mm
03:30 PM 51.3°F10.7°C 51.3°F10.7°C 100% 2.8 mph W4.5 kmh W 10.3 mph16.6 kmh 29.69 in1005.4 mb 0.00 in0.0 mm 0.00 in0.0 mm 0.07 in1.8 mm
03:15 PM 50.7°F10.4°C 50.7°F10.4°C 100% 3.9 mph W6.3 kmh W 8.7 mph14.0 kmh 29.71 in1006.1 mb 0.00 in0.0 mm 0.00 in0.0 mm 0.07 in1.8 mm
03:00 PM 50.7°F10.4°C 50.7°F10.4°C 100% 4.8 mph W7.7 kmh W 7.5 mph12.1 kmh 29.71 in1006.1 mb 0.00 in0.0 mm 0.00 in0.0 mm 0.07 in1.8 mm
02:45 PM 50.2°F10.1°C 50.2°F10.1°C 100% 2.8 mph W4.5 kmh W 6.7 mph10.8 kmh 29.73 in1006.8 mb 0.00 in0.0 mm 0.00 in0.0 mm 0.07 in1.8 mm
02:30 PM 49.8°F9.9°C 49.8°F9.9°C 100% 2.8 mph W4.5 kmh W 5.6 mph9.0 kmh 29.74 in1007.1 mb 0.00 in0.0 mm 0.00 in0.0 mm 0.07 in1.8 mm
02:15 PM 49.3°F9.6°C 48.7°F9.3°C 98% 2.0 mph W3.2 kmh W 6.7 mph10.8 kmh 29.76 in1007.8 mb 0.00 in0.0 mm 0.00 in0.0 mm 0.07 in1.8 mm
02:00 PM 49.1°F9.5°C 48.6°F9.2°C 98% Calm Calm 5.6 mph9.0 kmh 29.77 in1008.1 mb 0.00 in0.0 mm 0.00 in0.0 mm 0.07 in1.8 mm
01:45 PM 48.9°F9.4°C 48.1°F8.9°C 97% 2.8 mph W4.5 kmh W 5.6 mph9.0 kmh 29.78 in1008.5 mb 0.00 in0.0 mm 0.00 in0.0 mm 0.07 in1.8 mm
01:30 PM 48.7°F9.3°C 47.9°F8.8°C 97% 2.0 mph W3.2 kmh W 5.6 mph9.0 kmh 29.80 in1009.1 mb 0.00 in0.0 mm 0.00 in0.0 mm 0.07 in1.8 mm
01:15 PM 48.6°F9.2°C 47.8°F8.8°C 97% 0.8 mph W1.3 kmh W 4.8 mph7.7 kmh 29.80 in1009.1 mb 0.01 in0.3 mm 0.00 in0.0 mm 0.07 in1.8 mm
01:00 PM 48.4°F9.1°C 47.6°F8.7°C 97% 0.8 mph W1.3 kmh W 4.8 mph7.7 kmh 29.82 in1009.8 mb 0.01 in0.3 mm 0.00 in0.0 mm 0.07 in1.8 mm
12:45 PM 48.2°F9.0°C 47.1°F8.4°C 96% Calm Calm 4.8 mph7.7 kmh 29.83 in1010.2 mb 0.01 in0.3 mm 0.00 in0.0 mm 0.07 in1.8 mm
12:30 PM 48.0°F8.9°C 46.9°F8.3°C 96% 2.0 mph W3.2 kmh W 4.8 mph7.7 kmh 29.84 in1010.5 mb 0.01 in0.3 mm 0.00 in0.0 mm 0.07 in1.8 mm
12:15 PM 47.8°F8.8°C 46.8°F8.2°C 96% Calm Calm 5.6 mph9.0 kmh 29.86 in1011.2 mb 0.01 in0.3 mm 0.00 in0.0 mm 0.05 in1.3 mm
12:00 PM 47.7°F8.7°C 46.3°F7.9°C 95% 2.0 mph W3.2 kmh W 4.8 mph7.7 kmh 29.86 in1011.2 mb 0.01 in0.3 mm 0.00 in0.0 mm 0.05 in1.3 mm
11:45 AM 47.5°F8.6°C 46.1°F7.8°C 95% 0.8 mph W1.3 kmh W 3.9 mph6.3 kmh 29.88 in1011.9 mb 0.03 in0.8 mm 0.00 in0.0 mm 0.05 in1.3 mm
11:30 AM 47.3°F8.5°C 45.7°F7.6°C 94% Calm Calm 9.5 mph15.3 kmh 29.89 in1012.2 mb 0.04 in1.0 mm 0.04 in1.0 mm 0.05 in1.3 mm
11:15 AM 47.1°F8.4°C 45.5°F7.5°C 94% 2.0 mph W3.2 kmh W 6.7 mph10.8 kmh 29.90 in1012.5 mb 0.03 in0.8 mm 0.00 in0.0 mm 0.04 in1.0 mm
11:00 AM 46.9°F8.3°C 45.3°F7.4°C 94% 3.9 mph W6.3 kmh W 7.5 mph12.1 kmh 29.92 in1013.2 mb 0.03 in0.8 mm 0.00 in0.0 mm 0.04 in1.0 mm
10:45 AM 46.8°F8.2°C 45.1°F7.3°C 94% 3.9 mph W6.3 kmh W 8.7 mph14.0 kmh 29.94 in1013.9 mb 0.03 in0.8 mm 0.08 in2.0 mm 0.03 in0.8 mm
10:30 AM 46.6°F8.1°C 44.7°F7.1°C 93% 2.0 mph W3.2 kmh W 6.7 mph10.8 kmh 29.94 in1013.9 mb 0.01 in0.3 mm 0.00 in0.0 mm 0.01 in0.3 mm
10:15 AM 46.4°F8.0°C 44.5°F6.9°C 93% 3.9 mph W6.3 kmh W 14.3 mph23.0 kmh 29.95 in1014.2 mb 0.01 in0.3 mm 0.00 in0.0 mm 0.01 in0.3 mm
10:00 AM 46.2°F7.9°C 44.3°F6.8°C 93% 2.8 mph W4.5 kmh W 8.7 mph14.0 kmh 29.96 in1014.6 mb 0.01 in0.3 mm 0.01 in0.3 mm 0.01 in0.3 mm
09:45 AM 46.2°F7.9°C 44.6°F7.0°C 94% 4.8 mph W7.7 kmh W 11.5 mph18.5 kmh 29.96 in1014.6 mb 0.00 in0.0 mm 0.00 in0.0 mm 0.00 in0.0 mm
09:30 AM 45.9°F7.7°C 44.2°F6.8°C 94% 5.6 mph W9.0 kmh W 11.5 mph18.5 kmh 29.96 in1014.6 mb 0.00 in0.0 mm 0.00 in0.0 mm 0.00 in0.0 mm
09:15 AM 45.1°F7.3°C 43.8°F6.6°C 95% 3.9 mph W6.3 kmh W 11.5 mph18.5 kmh 29.97 in1014.9 mb 0.00 in0.0 mm 0.00 in0.0 mm 0.00 in0.0 mm
09:00 AM 44.2°F6.8°C 42.9°F6.1°C 95% 2.0 mph W3.2 kmh W 6.7 mph10.8 kmh 29.98 in1015.2 mb 0.00 in0.0 mm 0.00 in0.0 mm 0.00 in0.0 mm
08:45 AM 43.7°F6.5°C 42.4°F5.8°C 95% 0.8 mph W1.3 kmh W 4.8 mph7.7 kmh 29.99 in1015.6 mb 0.00 in0.0 mm 0.00 in0.0 mm 0.00 in0.0 mm
08:30 AM 43.2°F6.2°C 41.8°F5.4°C 95% 0.8 mph W1.3 kmh W 4.8 mph7.7 kmh 30.01 in1016.3 mb 0.00 in0.0 mm 0.00 in0.0 mm 0.00 in0.0 mm
08:15 AM 42.6°F5.9°C 41.3°F5.2°C 95% 0.8 mph W1.3 kmh W 3.9 mph6.3 kmh 30.02 in1016.6 mb 0.00 in0.0 mm 0.00 in0.0 mm 0.00 in0.0 mm
08:00 AM 42.3°F5.7°C 40.9°F4.9°C 95% 0.8 mph W1.3 kmh W 4.8 mph7.7 kmh 30.01 in1016.3 mb 0.00 in0.0 mm 0.00 in0.0 mm 0.00 in0.0 mm
07:45 AM 41.9°F5.5°C 40.6°F4.8°C 95% 0.8 mph W1.3 kmh W 3.9 mph6.3 kmh 30.01 in1016.3 mb 0.00 in0.0 mm 0.00 in0.0 mm 0.00 in0.0 mm
07:30 AM 41.5°F5.3°C 40.2°F4.6°C 95% Calm Calm 3.9 mph6.3 kmh 30.02 in1016.6 mb 0.00 in0.0 mm 0.00 in0.0 mm 0.00 in0.0 mm
07:15 AM 41.2°F5.1°C 39.9°F4.4°C 95% Calm Calm 2.8 mph4.5 kmh 30.03 in1016.9 mb 0.00 in0.0 mm 0.00 in0.0 mm 0.00 in0.0 mm
07:00 AM 40.5°F4.7°C 38.9°F3.8°C 94% 0.8 mph W1.3 kmh W 3.9 mph6.3 kmh 30.04 in1017.3 mb 0.00 in0.0 mm 0.00 in0.0 mm 0.00 in0.0 mm
06:45 AM 39.4°F4.1°C 37.5°F3.1°C 93% 0.8 mph W1.3 kmh W 3.9 mph6.3 kmh 30.05 in1017.6 mb 0.00 in0.0 mm 0.00 in0.0 mm 0.00 in0.0 mm
06:30 AM 39.2°F4.0°C 37.4°F3.0°C 93% 0.8 mph W1.3 kmh W 2.0 mph3.2 kmh 30.06 in1017.9 mb 0.00 in0.0 mm 0.00 in0.0 mm 0.00 in0.0 mm
06:15 AM 39.4°F4.1°C 37.5°F3.1°C 93% Calm Calm 2.0 mph3.2 kmh 30.06 in1017.9 mb 0.00 in0.0 mm 0.00 in0.0 mm 0.00 in0.0 mm
06:00 AM 39.9°F4.4°C 38.1°F3.4°C 93% Calm Calm 2.0 mph3.2 kmh 30.06 in1017.9 mb 0.00 in0.0 mm 0.00 in0.0 mm 0.00 in0.0 mm
05:45 AM 40.3°F4.6°C 38.4°F3.6°C 93% Calm Calm 2.0 mph3.2 kmh 30.07 in1018.3 mb 0.00 in0.0 mm 0.00 in0.0 mm 0.00 in0.0 mm
05:30 AM 40.6°F4.8°C 38.8°F3.8°C 93% Calm Calm 2.8 mph4.5 kmh 30.08 in1018.6 mb 0.00 in0.0 mm 0.00 in0.0 mm 0.00 in0.0 mm
05:15 AM 40.8°F4.9°C 39.0°F3.9°C 93% Calm Calm 2.8 mph4.5 kmh 30.08 in1018.6 mb 0.00 in0.0 mm 0.00 in0.0 mm 0.00 in0.0 mm
05:00 AM 40.8°F4.9°C 39.0°F3.9°C 93% Calm Calm 2.8 mph4.5 kmh 30.09 in1019.0 mb 0.00 in0.0 mm 0.00 in0.0 mm 0.00 in0.0 mm
04:45 AM 40.8°F4.9°C 38.7°F3.7°C 92% 2.0 mph W3.2 kmh W 3.9 mph6.3 kmh 30.08 in1018.6 mb 0.00 in0.0 mm 0.00 in0.0 mm 0.00 in0.0 mm
04:30 AM 40.5°F4.7°C 38.3°F3.5°C 92% Calm Calm 2.8 mph4.5 kmh 30.09 in1019.0 mb 0.00 in0.0 mm 0.00 in0.0 mm 0.00 in0.0 mm
04:15 AM 40.3°F4.6°C 38.1°F3.4°C 92% Calm Calm 2.8 mph4.5 kmh 30.10 in1019.3 mb 0.00 in0.0 mm 0.00 in0.0 mm 0.00 in0.0 mm
04:00 AM 39.7°F4.3°C 37.3°F2.9°C 91% Calm Calm 2.8 mph4.5 kmh 30.10 in1019.3 mb 0.00 in0.0 mm 0.00 in0.0 mm 0.00 in0.0 mm
03:45 AM 39.7°F4.3°C 37.1°F2.8°C 90% Calm Calm 2.8 mph4.5 kmh 30.11 in1019.6 mb 0.00 in0.0 mm 0.00 in0.0 mm 0.00 in0.0 mm
03:30 AM 39.9°F4.4°C 37.2°F2.9°C 90% Calm Calm 2.0 mph3.2 kmh 30.11 in1019.6 mb 0.00 in0.0 mm 0.00 in0.0 mm 0.00 in0.0 mm
03:15 AM 40.5°F4.7°C 37.8°F3.2°C 90% Calm Calm 2.0 mph3.2 kmh 30.12 in1020.0 mb 0.00 in0.0 mm 0.00 in0.0 mm 0.00 in0.0 mm
03:00 AM 41.2°F5.1°C 38.5°F3.6°C 90% Calm Calm 2.0 mph3.2 kmh 30.12 in1020.0 mb 0.00 in0.0 mm 0.00 in0.0 mm 0.00 in0.0 mm
02:45 AM 41.5°F5.3°C 38.8°F3.8°C 90% Calm Calm 2.8 mph4.5 kmh 30.12 in1020.0 mb 0.00 in0.0 mm 0.00 in0.0 mm 0.00 in0.0 mm
02:30 AM 41.9°F5.5°C 39.2°F4.0°C 90% 2.0 mph W3.2 kmh W 3.9 mph6.3 kmh 30.13 in1020.3 mb 0.00 in0.0 mm 0.00 in0.0 mm 0.00 in0.0 mm
02:15 AM 42.4°F5.8°C 39.7°F4.3°C 90% Calm Calm 2.8 mph4.5 kmh 30.13 in1020.3 mb 0.00 in0.0 mm 0.00 in0.0 mm 0.00 in0.0 mm
02:00 AM 42.3°F5.7°C 39.5°F4.2°C 90% 0.8 mph W1.3 kmh W 3.9 mph6.3 kmh 30.14 in1020.7 mb 0.00 in0.0 mm 0.00 in0.0 mm 0.00 in0.0 mm
01:45 AM 41.4°F5.2°C 38.1°F3.4°C 88% 0.8 mph W1.3 kmh W 4.8 mph7.7 kmh 30.15 in1021.0 mb 0.00 in0.0 mm 0.00 in0.0 mm 0.00 in0.0 mm
01:30 AM 41.2°F5.1°C 37.6°F3.1°C 87% Calm Calm 3.9 mph6.3 kmh 30.15 in1021.0 mb 0.00 in0.0 mm 0.00 in0.0 mm 0.00 in0.0 mm
01:15 AM 41.7°F5.4°C 37.8°F3.2°C 86% Calm Calm 2.0 mph3.2 kmh 30.15 in1021.0 mb 0.00 in0.0 mm 0.00 in0.0 mm 0.00 in0.0 mm
01:00 AM 42.1°F5.6°C 38.2°F3.4°C 86% Calm Calm 2.0 mph3.2 kmh 30.15 in1021.0 mb 0.00 in0.0 mm 0.00 in0.0 mm 0.00 in0.0 mm
12:45 AM 42.6°F5.9°C 38.7°F3.7°C 86% 0.8 mph W1.3 kmh W 2.0 mph3.2 kmh 30.15 in1021.0 mb 0.00 in0.0 mm 0.00 in0.0 mm 0.00 in0.0 mm
12:30 AM 43.0°F6.1°C 39.1°F3.9°C 86% Calm Calm 2.8 mph4.5 kmh 30.15 in1021.0 mb 0.00 in0.0 mm 0.00 in0.0 mm 0.00 in0.0 mm
12:15 AM 43.0°F6.1°C 38.8°F3.8°C 85% 0.8 mph W1.3 kmh W 2.8 mph4.5 kmh 30.15 in1021.0 mb 0.00 in0.0 mm 0.00 in0.0 mm 0.00 in0.0 mm
12:00 AM 43.0°F6.1°C 38.5°F3.6°C 84% Calm Calm 3.9 mph6.3 kmh 30.16 in1021.3 mb 0.00 in0.0 mm 0.00 in0.0 mm 0.00 in0.0 mm